Time;durP1;ratioP1;P1;durP2;ratioP2;P2;SDS_P1;SDS_P2;PMS_P1;PMS_P2;Temp;Humidity;BMP_temperature;BMP_pressure;BME280_temperature;BME280_humidity;BME280_pressure;Samples;Min_cycle;Max_cycle;Signal;HPM_P1;HPM_P2
2021/10/31 00:02:11;;;;;;;3.83;0.30;;;25.20;60.50;;;;;;5079210;28;20087;-74
2021/10/31 00:04:38;;;;;;;2.13;0.20;;;25.60;61.60;;;;;;5075411;28;20037;-74
2021/10/31 00:07:06;;;;;;;2.33;0.43;;;25.80;59.30;;;;;;5065286;28;20028;-73
2021/10/31 00:09:33;;;;;;;2.20;0.38;;;25.40;58.90;;;;;;5084947;28;20028;-72
2021/10/31 00:12:01;;;;;;;0.82;0.20;;;25.00;59.00;;;;;;5080809;28;20016;-81
2021/10/31 00:14:28;;;;;;;1.80;0.52;;;25.00;60.80;;;;;;5091263;28;20506;-74
2021/10/31 00:16:59;;;;;;;0.80;0.20;;;24.50;54.30;;;;;;5078232;28;20028;-77
2021/10/31 00:19:28;;;;;;;3.58;0.63;;;23.60;57.60;;;;;;5083761;28;20107;-78
2021/10/31 00:21:55;;;;;;;4.85;0.75;;;22.90;60.00;;;;;;5081905;28;20858;-74
2021/10/31 00:24:23;;;;;;;0.95;0.30;;;22.50;61.30;;;;;;5080446;28;22328;-79
2021/10/31 00:26:50;;;;;;;3.30;0.43;;;21.90;61.80;;;;;;5080147;28;20036;-78
2021/10/31 00:29:18;;;;;;;1.90;0.85;;;21.50;62.80;;;;;;5079616;28;20074;-74
2021/10/31 00:31:45;;;;;;;1.35;0.40;;;21.40;65.30;;;;;;5087268;28;20036;-81
2021/10/31 00:34:13;;;;;;;0.82;0.28;;;21.40;65.30;;;;;;5070822;28;20027;-78
2021/10/31 00:36:40;;;;;;;3.78;0.90;;;21.50;64.40;;;;;;5072659;28;21537;-71
2021/10/31 00:39:08;;;;;;;1.83;0.40;;;21.60;61.80;;;;;;5078450;28;20056;-77
2021/10/31 00:41:35;;;;;;;1.10;0.30;;;21.60;61.60;;;;;;5074255;28;20032;-76
2021/10/31 00:44:02;;;;;;;2.88;0.82;;;21.80;60.50;;;;;;5072575;28;20120;-74
2021/10/31 00:46:30;;;;;;;2.50;0.30;;;22.40;59.60;;;;;;5071377;28;20117;-77
2021/10/31 00:48:57;;;;;;;1.00;0.40;;;23.10;60.60;;;;;;5072211;28;20146;-72
2021/10/31 00:51:28;;;;;;;7.85;1.27;;;23.20;58.80;;;;;;5071152;28;21556;-75
2021/10/31 00:53:58;;;;;;;3.50;0.40;;;23.50;59.00;;;;;;5070521;28;20107;-71
2021/10/31 00:56:27;;;;;;;3.30;0.43;;;24.20;56.50;;;;;;5056967;28;20029;-71
2021/10/31 00:58:55;;;;;;;1.25;0.47;;;24.50;56.40;;;;;;5068987;28;20152;-77
2021/10/31 01:01:22;;;;;;;2.90;0.55;;;24.80;56.30;;;;;;5069552;28;20036;-76
2021/10/31 01:03:51;;;;;;;3.40;0.30;;;25.70;56.20;;;;;;5067546;28;20048;-72
2021/10/31 01:06:50;;;;;;;3.25;1.02;;;26.20;52.60;;;;;;5068397;28;20025;-73
2021/10/31 01:09:21;;;;;;;2.03;0.60;;;26.50;52.80;;;;;;5075109;28;20485;-75
2021/10/31 01:11:54;;;;;;;2.38;0.30;;;25.90;52.40;;;;;;5083481;28;20036;-73
2021/10/31 01:14:58;;;;;;;1.33;0.40;;;26.00;54.00;;;;;;5080802;28;20090;-78
2021/10/31 01:17:40;;;;;;;2.60;0.43;;;26.10;53.70;;;;;;5088558;28;20073;-78
2021/10/31 01:20:45;;;;;;;1.10;0.40;;;26.40;53.60;;;;;;5085239;28;20016;-74
2021/10/31 01:23:44;;;;;;;2.42;0.32;;;26.70;53.80;;;;;;5056993;28;20044;-73
2021/10/31 01:26:32;;;;;;;1.40;0.60;;;27.50;54.00;;;;;;5076466;28;20028;-77
2021/10/31 01:29:22;;;;;;;2.88;0.35;;;28.00;50.90;;;;;;5077294;28;20230;-79
2021/10/31 01:31:49;;;;;;;1.58;0.60;;;28.20;51.40;;;;;;5073710;28;20028;-78
2021/10/31 01:34:39;;;;;;;0.70;0.47;;;27.90;46.70;;;;;;5069613;28;20039;-77
2021/10/31 01:37:09;;;;;;;0.63;0.20;;;27.70;47.80;;;;;;5070102;28;20120;-71
2021/10/31 01:40:05;;;;;;;3.33;0.57;;;27.60;47.40;;;;;;5071509;28;20039;-73
2021/10/31 01:42:42;;;;;;;;;;;27.50;47.40;;;;;;5059406;28;20716;-72
2021/10/31 01:45:41;;;;;;;2.75;0.75;;;28.00;50.10;;;;;;5070978;28;19998;-78
2021/10/31 01:48:29;;;;;;;1.25;0.25;;;28.70;50.30;;;;;;5060284;28;20509;-79
2021/10/31 01:51:00;;;;;;;1.10;0.20;;;29.00;46.90;;;;;;5070495;28;20052;-73
2021/10/31 01:53:48;;;;;;;3.60;0.52;;;29.10;45.80;;;;;;5086399;28;20028;-71
2021/10/31 01:56:19;;;;;;;0.68;0.40;;;28.90;45.50;;;;;;5080260;28;20433;-72
2021/10/31 01:58:59;;;;;;;0.65;0.22;;;28.20;46.20;;;;;;5075851;28;20028;-76
2021/10/31 02:01:30;;;;;;;2.70;0.38;;;27.80;44.50;;;;;;5078368;28;20024;-76
2021/10/31 02:04:02;;;;;;;2.65;0.20;;;27.50;45.00;;;;;;5077451;28;20065;-75
2021/10/31 02:06:31;;;;;;;1.90;0.32;;;27.40;45.70;;;;;;5088589;28;20020;-74
2021/10/31 02:09:00;;;;;;;3.42;0.30;;;27.80;46.40;;;;;;5080863;28;20038;-76
2021/10/31 02:11:29;;;;;;;2.20;0.63;;;28.00;45.80;;;;;;5064878;28;20048;-75
2021/10/31 02:14:00;;;;;;;1.67;0.30;;;28.50;46.80;;;;;;5081215;28;20578;-77
2021/10/31 02:16:29;;;;;;;1.85;0.65;;;28.80;47.40;;;;;;5070169;28;20081;-74
2021/10/31 02:19:03;;;;;;;1.95;0.47;;;28.70;43.40;;;;;;5057695;28;20356;-71
2021/10/31 02:21:37;;;;;;;0.98;0.20;;;27.90;41.70;;;;;;5068567;28;20041;-73
2021/10/31 02:24:07;;;;;;;1.38;0.50;;;27.90;46.50;;;;;;5066738;28;20017;-75
2021/10/31 02:26:39;;;;;;;1.95;0.60;;;28.30;46.90;;;;;;5070752;28;20508;-75
2021/10/31 02:29:08;;;;;;;1.05;0.30;;;28.80;44.60;;;;;;5066257;28;20028;-73
2021/10/31 02:31:37;;;;;;;1.98;0.52;;;29.00;43.00;;;;;;5064846;28;20048;-75
2021/10/31 02:34:06;;;;;;;1.40;0.50;;;29.10;45.90;;;;;;5067145;28;20024;-74
2021/10/31 02:36:35;;;;;;;1.95;0.70;;;29.10;42.80;;;;;;5071095;28;20183;-72
2021/10/31 02:39:05;;;;;;;2.60;0.30;;;29.00;42.80;;;;;;5070919;28;20560;-73
2021/10/31 02:41:34;;;;;;;3.97;0.30;;;28.80;42.50;;;;;;5069218;28;20055;-74
2021/10/31 02:44:02;;;;;;;1.85;0.30;;;28.50;43.40;;;;;;5069263;28;20048;-73
2021/10/31 02:46:32;;;;;;;1.27;0.30;;;28.20;42.90;;;;;;5076509;28;20389;-75
2021/10/31 02:49:00;;;;;;;2.58;0.57;;;27.30;43.00;;;;;;5077525;28;20020;-78
2021/10/31 02:52:06;;;;;;;1.00;0.40;;;27.00;44.10;;;;;;5077388;28;20437;-75
2021/10/31 02:55:08;;;;;;;0.30;0.20;;;27.10;43.90;;;;;;5060879;28;20066;-75
2021/10/31 02:58:05;;;;;;;4.65;0.30;;;27.40;45.80;;;;;;5078416;28;20089;-72
2021/10/31 03:00:34;;;;;;;2.78;0.73;;;28.20;45.40;;;;;;5073836;28;20033;-71
2021/10/31 03:03:02;;;;;;;2.13;0.40;;;28.90;45.40;;;;;;5081150;28;20441;-77
2021/10/31 03:05:29;;;;;;;1.25;0.30;;;29.30;44.00;;;;;;5071814;28;20030;-77
2021/10/31 03:07:58;;;;;;;2.53;0.70;;;29.20;42.50;;;;;;5066666;28;20024;-72
2021/10/31 03:10:25;;;;;;;3.20;0.40;;;29.30;43.00;;;;;;5069449;28;20716;-75
2021/10/31 03:12:53;;;;;;;1.88;0.35;;;29.20;42.80;;;;;;5054945;28;20475;-73
2021/10/31 03:15:21;;;;;;;0.65;0.20;;;29.10;41.30;;;;;;5071717;28;20035;-72
2021/10/31 03:17:48;;;;;;;2.08;0.60;;;28.50;43.10;;;;;;5068183;28;20028;-73
2021/10/31 03:20:15;;;;;;;3.65;0.40;;;28.40;44.20;;;;;;5071008;28;20024;-70
2021/10/31 03:22:43;;;;;;;0.93;0.30;;;28.40;44.90;;;;;;5069349;28;20080;-72
2021/10/31 03:25:10;;;;;;;1.98;0.30;;;28.30;45.20;;;;;;5077204;28;20073;-71
2021/10/31 03:27:38;;;;;;;5.38;0.38;;;28.10;44.20;;;;;;5074139;28;20181;-75
2021/10/31 03:30:05;;;;;;;1.25;0.20;;;28.00;44.20;;;;;;5065643;28;20055;-74
2021/10/31 03:32:33;;;;;;;5.07;0.68;;;28.10;44.90;;;;;;5081185;28;20056;-74
2021/10/31 03:35:00;;;;;;;2.17;0.45;;;28.30;43.80;;;;;;5084711;28;20348;-73
2021/10/31 03:37:27;;;;;;;2.65;0.75;;;28.60;43.60;;;;;;5089249;28;20031;-76
2021/10/31 03:39:55;;;;;;;2.50;0.30;;;28.90;46.30;;;;;;5094065;28;20099;-70
2021/10/31 03:42:23;;;;;;;2.13;0.35;;;28.90;42.80;;;;;;5088041;28;20032;-76
2021/10/31 03:44:50;;;;;;;1.98;0.40;;;28.90;45.70;;;;;;5092230;28;20031;-76
2021/10/31 03:47:19;;;;;;;3.53;0.57;;;28.80;45.60;;;;;;5088841;28;20360;-75
2021/10/31 03:49:47;;;;;;;1.80;0.40;;;28.40;46.30;;;;;;5090519;28;20020;-75
2021/10/31 03:52:14;;;;;;;1.75;0.40;;;28.60;46.30;;;;;;5091267;28;20035;-77
2021/10/31 03:54:42;;;;;;;2.90;0.38;;;28.60;45.90;;;;;;5081774;28;20486;-75
2021/10/31 03:57:09;;;;;;;2.03;0.20;;;28.60;45.20;;;;;;5087377;28;20088;-71
2021/10/31 03:59:37;;;;;;;1.58;0.30;;;28.60;45.10;;;;;;5078011;28;20036;-77
2021/10/31 04:02:05;;;;;;;2.75;0.38;;;28.50;47.20;;;;;;5082051;28;20486;-77
2021/10/31 04:04:32;;;;;;;3.80;0.40;;;28.20;48.20;;;;;;5089789;28;20061;-73
2021/10/31 04:07:00;;;;;;;0.80;0.32;;;28.10;48.20;;;;;;5090915;28;20032;-77
2021/10/31 04:09:27;;;;;;;4.50;0.82;;;27.70;48.00;;;;;;5095126;28;20016;-80
2021/10/31 04:11:54;;;;;;;1.67;0.50;;;27.80;49.20;;;;;;5091745;28;20027;-70
2021/10/31 04:14:22;;;;;;;1.50;0.40;;;27.60;49.10;;;;;;5091591;28;20028;-71
2021/10/31 04:16:49;;;;;;;0.57;0.20;;;27.10;50.60;;;;;;5085927;28;20102;-78
2021/10/31 04:19:17;;;;;;;5.47;0.70;;;26.80;52.00;;;;;;5091314;28;20028;-79
2021/10/31 04:21:44;;;;;;;1.73;0.40;;;26.50;52.70;;;;;;5081299;28;20506;-74
2021/10/31 04:24:12;;;;;;;1.17;0.40;;;26.70;52.60;;;;;;5082179;28;20016;-78
2021/10/31 04:26:39;;;;;;;1.48;0.50;;;27.00;52.00;;;;;;5082916;28;20067;-79
2021/10/31 04:29:06;;;;;;;1.80;0.30;;;27.10;52.60;;;;;;5065994;28;20048;-76
2021/10/31 04:31:34;;;;;;;1.73;0.38;;;27.00;52.40;;;;;;5083991;28;20046;-79
2021/10/31 04:34:01;;;;;;;3.75;0.55;;;26.70;53.10;;;;;;5091322;28;20209;-79
2021/10/31 04:36:29;;;;;;;3.95;1.13;;;26.70;53.30;;;;;;5084921;28;20032;-77
2021/10/31 04:38:56;;;;;;;1.13;0.32;;;26.00;53.80;;;;;;5092095;28;20103;-78
2021/10/31 04:41:26;;;;;;;3.65;1.15;;;25.60;55.20;;;;;;5090799;28;20383;-79
2021/10/31 04:43:53;;;;;;;2.95;0.30;;;25.40;55.80;;;;;;5093875;28;20026;-79
2021/10/31 04:46:20;;;;;;;3.55;0.30;;;25.80;56.20;;;;;;5092382;28;20211;-80
2021/10/31 04:48:48;;;;;;;1.58;0.43;;;26.20;55.60;;;;;;5091275;28;20043;-73
2021/10/31 04:51:15;;;;;;;2.22;0.50;;;26.10;55.30;;;;;;5092802;28;20062;-73
2021/10/31 04:53:43;;;;;;;2.40;0.30;;;26.00;55.30;;;;;;5092648;28;20666;-77
2021/10/31 04:56:11;;;;;;;0.95;0.30;;;25.80;55.30;;;;;;5091279;28;20475;-77
2021/10/31 04:58:38;;;;;;;2.20;0.95;;;25.80;55.20;;;;;;5085722;28;20058;-73
2021/10/31 05:01:05;;;;;;;0.95;0.28;;;25.70;55.20;;;;;;5066282;28;20095;-74
2021/10/31 05:03:33;;;;;;;2.22;0.85;;;25.70;56.00;;;;;;5084969;28;20031;-76
2021/10/31 05:06:00;;;;;;;4.03;0.50;;;25.50;55.00;;;;;;5092022;28;20445;-75
2021/10/31 05:08:28;;;;;;;2.85;0.47;;;25.50;55.50;;;;;;5092433;28;20020;-76
2021/10/31 05:10:56;;;;;;;1.30;0.70;;;25.60;56.50;;;;;;5078063;28;20047;-71
2021/10/31 05:13:23;;;;;;;1.35;0.28;;;25.50;56.60;;;;;;5091614;28;20467;-77
2021/10/31 05:15:50;;;;;;;1.42;0.30;;;25.30;57.90;;;;;;5092278;28;20052;-76
2021/10/31 05:18:18;;;;;;;0.77;0.38;;;25.50;57.20;;;;;;5093284;28;20024;-77
2021/10/31 05:20:45;;;;;;;6.95;0.70;;;25.50;57.20;;;;;;5086396;28;20406;-73
2021/10/31 05:23:12;;;;;;;2.50;0.40;;;25.20;57.90;;;;;;5092687;28;20055;-76
2021/10/31 05:25:40;;;;;;;0.77;0.20;;;25.00;58.00;;;;;;5090199;28;20393;-73
2021/10/31 05:28:07;;;;;;;2.58;0.50;;;25.20;58.20;;;;;;5090259;28;20031;-73
2021/10/31 05:30:35;;;;;;;3.30;0.93;;;25.30;58.00;;;;;;5067778;28;20020;-72
2021/10/31 05:33:02;;;;;;;2.63;0.50;;;24.80;57.50;;;;;;5092382;28;20040;-74
2021/10/31 05:35:29;;;;;;;3.58;0.80;;;24.60;58.90;;;;;;5089972;28;20020;-73
2021/10/31 05:37:58;;;;;;;0.82;0.30;;;24.30;59.40;;;;;;5092607;28;20035;-78
2021/10/31 05:40:26;;;;;;;3.55;0.55;;;23.90;60.00;;;;;;5090851;28;20493;-72
2021/10/31 05:42:54;;;;;;;3.58;0.63;;;24.00;60.00;;;;;;5088147;28;20094;-75
2021/10/31 05:45:22;;;;;;;3.58;1.10;;;24.00;60.40;;;;;;5073158;28;20033;-75
2021/10/31 05:47:53;;;;;;;1.33;0.47;;;23.70;60.40;;;;;;5071766;28;20024;-73
2021/10/31 05:50:21;;;;;;;4.80;0.68;;;23.70;60.70;;;;;;5073076;28;20361;-74
2021/10/31 05:52:49;;;;;;;5.30;0.65;;;24.00;60.50;;;;;;5090439;28;20048;-73
2021/10/31 05:55:17;;;;;;;2.22;0.50;;;24.00;60.20;;;;;;5082341;28;20034;-73
2021/10/31 05:57:46;;;;;;;2.78;0.40;;;24.20;60.00;;;;;;5083911;28;20039;-72
2021/10/31 06:00:15;;;;;;;5.05;0.73;;;24.20;60.00;;;;;;5081779;28;20039;-76
2021/10/31 06:02:45;;;;;;;5.20;0.57;;;24.30;61.10;;;;;;5064745;28;20056;-77
2021/10/31 06:05:13;;;;;;;3.22;0.80;;;24.30;61.10;;;;;;5091216;28;20394;-74
2021/10/31 06:07:41;;;;;;;1.33;0.40;;;24.20;61.30;;;;;;5090439;28;20055;-72
2021/10/31 06:10:10;;;;;;;0.93;0.30;;;24.10;61.00;;;;;;5092908;28;20113;-79
2021/10/31 06:12:42;;;;;;;1.42;0.55;;;23.90;61.70;;;;;;5089041;28;20016;-71
2021/10/31 06:15:10;;;;;;;2.63;0.25;;;23.90;61.70;;;;;;5093287;28;20087;-74
2021/10/31 06:17:40;;;;;;;3.60;0.30;;;23.80;61.90;;;;;;5092119;28;20024;-76
2021/10/31 06:20:10;;;;;;;4.10;0.47;;;23.70;62.60;;;;;;5089891;28;20375;-74
2021/10/31 06:22:39;;;;;;;2.25;0.60;;;23.70;62.70;;;;;;5092682;28;20036;-77
2021/10/31 06:25:08;;;;;;;0.70;0.30;;;23.70;62.70;;;;;;5088257;28;20444;-80
2021/10/31 06:27:35;;;;;;;1.00;0.15;;;23.60;62.30;;;;;;5089709;28;20094;-73
2021/10/31 06:30:03;;;;;;;3.65;0.35;;;23.40;62.90;;;;;;5091106;28;20069;-79
2021/10/31 06:32:31;;;;;;;2.05;0.30;;;23.40;62.90;;;;;;5090272;28;20086;-77
2021/10/31 06:34:58;;;;;;;2.28;0.57;;;23.20;62.70;;;;;;5078263;28;20058;-73
2021/10/31 06:37:32;;;;;;;1.10;0.30;;;23.00;63.30;;;;;;5089101;28;20123;-77
2021/10/31 06:39:59;;;;;;;3.30;0.73;;;22.90;63.70;;;;;;5092755;28;20036;-76
2021/10/31 06:42:28;;;;;;;3.25;0.30;;;22.80;63.80;;;;;;5089964;28;20097;-72
2021/10/31 06:44:56;;;;;;;1.17;0.20;;;22.60;64.30;;;;;;5092604;28;20023;-76
2021/10/31 06:47:24;;;;;;;1.35;0.30;;;22.60;64.40;;;;;;5089147;28;20485;-76
2021/10/31 06:49:51;;;;;;;2.42;0.88;;;22.40;64.50;;;;;;5091930;28;20020;-78
2021/10/31 06:52:19;;;;;;;1.08;0.40;;;22.30;64.40;;;;;;5070500;28;20423;-72
2021/10/31 06:54:47;;;;;;;1.60;0.40;;;22.20;64.80;;;;;;5073442;28;20103;-75
2021/10/31 06:57:14;;;;;;;1.55;0.20;;;22.20;64.90;;;;;;5081054;28;20039;-75
2021/10/31 06:59:41;;;;;;;2.28;0.40;;;22.20;65.10;;;;;;5088895;28;20024;-77
2021/10/31 07:02:09;;;;;;;2.53;0.40;;;22.00;65.50;;;;;;5088826;28;20052;-75
2021/10/31 07:04:36;;;;;;;3.95;0.60;;;22.10;65.50;;;;;;5092139;28;20017;-75
2021/10/31 07:07:04;;;;;;;1.77;0.30;;;21.90;65.60;;;;;;5090480;28;20039;-71
2021/10/31 07:09:31;;;;;;;2.08;0.30;;;21.80;66.10;;;;;;5089982;28;20023;-77
2021/10/31 07:11:59;;;;;;;1.55;0.30;;;21.80;66.10;;;;;;5097828;28;20086;-76
2021/10/31 07:14:27;;;;;;;2.42;0.57;;;21.50;66.40;;;;;;5095845;28;20035;-72
2021/10/31 07:16:54;;;;;;;0.77;0.10;;;21.40;67.10;;;;;;5094793;28;20065;-71
2021/10/31 07:19:21;;;;;;;2.00;0.40;;;21.50;67.10;;;;;;5092514;28;20032;-69
2021/10/31 07:21:49;;;;;;;1.50;0.32;;;21.50;66.90;;;;;;5077743;28;20043;-73
2021/10/31 07:24:16;;;;;;;2.58;0.50;;;21.60;66.90;;;;;;5083984;28;20032;-72
2021/10/31 07:26:43;;;;;;;1.60;0.43;;;21.60;67.00;;;;;;5082076;28;20024;-74
2021/10/31 07:29:11;;;;;;;1.60;0.30;;;21.50;67.50;;;;;;5094056;28;20047;-75
2021/10/31 07:31:40;;;;;;;1.25;0.30;;;21.40;67.50;;;;;;5083356;28;20067;-73
2021/10/31 07:34:10;;;;;;;4.63;0.30;;;21.20;67.90;;;;;;5090580;28;20090;-72
2021/10/31 07:36:39;;;;;;;2.88;0.40;;;21.10;68.60;;;;;;5092824;28;20036;-73
2021/10/31 07:39:09;;;;;;;3.97;0.40;;;20.90;68.90;;;;;;5094415;28;20032;-74
2021/10/31 07:41:39;;;;;;;1.80;0.30;;;20.80;69.30;;;;;;5091523;28;20043;-75
2021/10/31 07:44:07;;;;;;;3.40;0.35;;;20.70;69.70;;;;;;5095648;28;20348;-76
2021/10/31 07:46:34;;;;;;;3.53;0.52;;;20.60;70.30;;;;;;5090744;28;20032;-80
2021/10/31 07:49:03;;;;;;;2.00;0.40;;;20.30;70.90;;;;;;5094089;28;20028;-75
2021/10/31 07:51:31;;;;;;;5.07;0.30;;;20.20;71.60;;;;;;5093075;28;20026;-73
2021/10/31 07:53:59;;;;;;;9.02;0.85;;;20.10;72.10;;;;;;5096196;28;20028;-74
2021/10/31 07:56:30;;;;;;;2.47;0.45;;;20.10;72.20;;;;;;5082735;28;20029;-73
2021/10/31 07:58:57;;;;;;;3.50;0.45;;;20.00;72.70;;;;;;5084022;28;20017;-73
2021/10/31 08:01:25;;;;;;;4.00;0.47;;;19.80;73.00;;;;;;5085075;28;20042;-71
2021/10/31 08:03:53;;;;;;;2.72;0.40;;;19.80;73.10;;;;;;5094665;28;20370;-71
2021/10/31 08:06:22;;;;;;;4.43;0.70;;;19.70;73.30;;;;;;5077369;28;20859;-72
2021/10/31 08:08:50;;;;;;;3.17;0.60;;;19.60;73.60;;;;;;5082153;28;20081;-70
2021/10/31 08:11:17;;;;;;;1.20;0.50;;;19.50;74.10;;;;;;5093247;28;20028;-73
2021/10/31 08:13:45;;;;;;;2.03;0.57;;;19.50;74.50;;;;;;5092792;28;20012;-73
2021/10/31 08:16:13;;;;;;;1.73;0.70;;;19.30;75.00;;;;;;5091924;28;20036;-72
2021/10/31 08:18:40;;;;;;;2.05;0.45;;;19.10;76.10;;;;;;5093679;28;20031;-72
2021/10/31 08:21:09;;;;;;;4.65;1.35;;;19.00;76.80;;;;;;5085452;28;20471;-72
2021/10/31 08:23:36;;;;;;;3.17;0.50;;;19.00;77.10;;;;;;5093350;28;20067;-72
2021/10/31 08:26:04;;;;;;;4.65;0.43;;;19.00;77.60;;;;;;5072911;28;20074;-72
2021/10/31 08:28:34;;;;;;;2.40;0.60;;;19.00;78.10;;;;;;5092618;28;20406;-72
2021/10/31 08:31:02;;;;;;;2.83;0.77;;;18.90;78.40;;;;;;5092660;28;20035;-70
2021/10/31 08:33:37;;;;;;;6.60;1.25;;;18.80;78.90;;;;;;5084963;28;20048;-71
2021/10/31 08:36:06;;;;;;;4.07;0.50;;;18.80;79.50;;;;;;5079360;28;20024;-72
2021/10/31 08:38:33;;;;;;;6.32;0.68;;;18.70;80.00;;;;;;5060541;28;20039;-71
2021/10/31 08:41:02;;;;;;;3.58;0.95;;;18.70;80.60;;;;;;5077989;28;20020;-71
2021/10/31 08:43:29;;;;;;;2.65;0.40;;;18.60;81.00;;;;;;5092399;28;20040;-73
2021/10/31 08:45:56;;;;;;;0.93;0.85;;;18.60;81.50;;;;;;5092117;28;20024;-71
2021/10/31 08:48:24;;;;;;;0.73;0.45;;;18.50;82.10;;;;;;5092729;28;20032;-70
2021/10/31 08:50:52;;;;;;;8.60;1.00;;;18.40;82.70;;;;;;5084754;28;20020;-74
2021/10/31 08:53:20;;;;;;;2.90;0.47;;;18.30;83.30;;;;;;5092679;28;20057;-72
2021/10/31 08:55:49;;;;;;;4.93;0.70;;;18.30;83.70;;;;;;5089061;28;20415;-72
2021/10/31 08:58:16;;;;;;;5.00;0.40;;;18.20;84.10;;;;;;5088015;28;20024;-72
2021/10/31 09:00:44;;;;;;;5.32;0.65;;;18.20;84.50;;;;;;5075240;28;20025;-72
2021/10/31 09:03:11;;;;;;;6.90;1.15;;;18.20;85.00;;;;;;5073263;28;20442;-73
2021/10/31 09:05:39;;;;;;;2.13;0.60;;;18.10;85.40;;;;;;5092110;28;20052;-71
2021/10/31 09:08:09;;;;;;;3.05;0.43;;;18.00;86.00;;;;;;5091985;28;20501;-71
2021/10/31 09:10:40;;;;;;;2.05;0.30;;;17.90;86.40;;;;;;5090274;28;20403;-75
2021/10/31 09:13:09;;;;;;;7.97;0.60;;;17.90;87.00;;;;;;5081063;28;20382;-71
2021/10/31 09:15:37;;;;;;;3.00;0.40;;;17.90;87.60;;;;;;5091714;28;20028;-75
2021/10/31 09:18:06;;;;;;;1.23;0.40;;;17.90;88.00;;;;;;5092932;28;20024;-75
2021/10/31 09:20:35;;;;;;;2.10;0.88;;;17.80;88.50;;;;;;5075434;28;20024;-76
2021/10/31 09:23:04;;;;;;;0.88;0.30;;;17.70;89.00;;;;;;5092819;28;20036;-71
2021/10/31 09:25:32;;;;;;;1.38;0.35;;;17.70;89.40;;;;;;5076753;28;20440;-71
2021/10/31 09:28:01;;;;;;;1.80;0.45;;;17.70;90.00;;;;;;5089971;28;20103;-71
2021/10/31 09:30:31;;;;;;;9.60;1.30;;;17.70;90.20;;;;;;5067316;28;20044;-71
2021/10/31 09:32:58;;;;;;;8.05;1.25;;;17.70;90.40;;;;;;5082849;28;20164;-73
2021/10/31 09:35:28;;;;;;;2.80;0.90;;;17.60;90.60;;;;;;5082980;28;20020;-71
2021/10/31 09:37:59;;;;;;;5.85;1.13;;;17.60;90.90;;;;;;5091034;28;20056;-74
2021/10/31 09:40:27;;;;;;;1.73;0.70;;;17.60;91.10;;;;;;5090799;28;20028;-71
2021/10/31 09:42:57;;;;;;;3.20;0.80;;;17.60;91.30;;;;;;5089499;28;20039;-74
2021/10/31 09:45:25;;;;;;;2.60;0.70;;;17.50;91.60;;;;;;5091049;28;20089;-74
2021/10/31 09:47:55;;;;;;;1.48;0.43;;;17.50;91.80;;;;;;5091420;28;20434;-76
2021/10/31 09:50:24;;;;;;;5.03;0.63;;;17.50;92.20;;;;;;5091537;28;20077;-72
2021/10/31 09:52:52;;;;;;;0.90;0.25;;;17.40;92.50;;;;;;5077826;28;20039;-72
2021/10/31 09:55:20;;;;;;;1.60;0.30;;;17.40;92.80;;;;;;5089557;28;20020;-75
2021/10/31 09:57:47;;;;;;;1.52;0.30;;;17.30;93.10;;;;;;5084867;28;20059;-71
2021/10/31 10:00:21;;;;;;;3.42;0.30;;;17.30;93.40;;;;;;5072683;28;20051;-73
2021/10/31 10:03:01;;;;;;;4.22;1.75;;;17.20;93.70;;;;;;5083400;28;20054;-73
2021/10/31 10:05:30;;;;;;;2.65;0.40;;;17.20;93.90;;;;;;5091237;28;20024;-74
2021/10/31 10:08:18;;;;;;;2.00;0.50;;;17.20;94.10;;;;;;5094524;28;20036;-75
2021/10/31 10:10:56;;;;;;;3.42;0.50;;;17.20;94.30;;;;;;5095288;28;20034;-74
2021/10/31 10:13:29;;;;;;;3.63;0.63;;;17.20;94.70;;;;;;5098707;28;20024;-74
2021/10/31 10:16:31;;;;;;;4.10;0.43;;;17.20;94.90;;;;;;5085701;28;20027;-76
2021/10/31 10:18:59;;;;;;;2.70;0.73;;;17.10;95.20;;;;;;5074313;28;20043;-74
2021/10/31 10:21:32;;;;;;;1.38;0.30;;;17.00;95.50;;;;;;5089429;28;20039;-74
2021/10/31 10:24:06;;;;;;;2.47;0.40;;;17.00;95.70;;;;;;5087307;28;20035;-76
2021/10/31 10:26:37;;;;;;;1.48;0.30;;;16.90;96.00;;;;;;5088895;28;20039;-76
2021/10/31 10:29:27;;;;;;;1.38;1.00;;;16.90;96.30;;;;;;5083971;28;20086;-75
2021/10/31 10:31:57;;;;;;;2.15;0.60;;;16.90;96.50;;;;;;5088671;28;20048;-75
2021/10/31 10:34:48;;;;;;;1.42;0.60;;;16.80;96.70;;;;;;5093000;28;20328;-77
2021/10/31 10:37:21;;;;;;;0.73;0.68;;;16.80;97.10;;;;;;5088454;28;20024;-71
2021/10/31 10:40:11;;;;;;;3.67;0.82;;;16.70;97.20;;;;;;5091635;28;20117;-75
2021/10/31 10:42:46;;;;;;;1.92;0.52;;;16.70;97.40;;;;;;5089982;28;20475;-72
2021/10/31 10:45:18;;;;;;;1.08;0.43;;;16.70;97.30;;;;;;5094103;28;20024;-75
2021/10/31 10:47:56;;;;;;;1.42;0.50;;;16.60;97.60;;;;;;5097616;28;20081;-76
2021/10/31 10:50:29;;;;;;;2.63;0.47;;;16.60;97.90;;;;;;5096851;28;20486;-76
2021/10/31 10:52:57;;;;;;;1.40;0.60;;;16.60;98.10;;;;;;5085612;28;20175;-75
2021/10/31 10:55:27;;;;;;;1.27;0.45;;;16.60;98.10;;;;;;5097532;28;20020;-78
2021/10/31 10:57:57;;;;;;;3.60;0.40;;;16.60;98.20;;;;;;5080555;28;20111;-75
2021/10/31 11:00:46;;;;;;;2.70;0.40;;;16.50;98.30;;;;;;5086718;28;20020;-76
2021/10/31 11:03:18;;;;;;;2.45;0.50;;;16.50;98.50;;;;;;5087787;28;20081;-77
2021/10/31 11:06:01;;;;;;;1.83;0.40;;;16.50;98.50;;;;;;5096882;28;20420;-76
2021/10/31 11:08:28;;;;;;;3.42;0.40;;;16.40;98.70;;;;;;5096499;28;20043;-75
2021/10/31 11:10:59;;;;;;;2.67;0.65;;;16.40;99.10;;;;;;5097139;28;20024;-74
2021/10/31 11:13:28;;;;;;;2.70;0.52;;;16.40;99.30;;;;;;5098098;28;20027;-76
2021/10/31 11:16:02;;;;;;;2.47;0.50;;;16.40;99.60;;;;;;5097349;28;20482;-76
2021/10/31 11:18:29;;;;;;;4.75;0.93;;;16.40;99.60;;;;;;5098493;28;20539;-75
2021/10/31 11:20:57;;;;;;;1.50;0.40;;;16.40;99.70;;;;;;5096581;28;20048;-78
2021/10/31 11:23:26;;;;;;;2.47;0.77;;;16.30;99.50;;;;;;5097761;28;20016;-77
2021/10/31 11:26:00;;;;;;;2.20;0.40;;;16.20;99.80;;;;;;5095533;28;20104;-77
2021/10/31 11:28:31;;;;;;;3.30;0.57;;;16.20;99.70;;;;;;5079981;28;20595;-76
2021/10/31 11:30:59;;;;;;;5.60;1.20;;;16.10;99.90;;;;;;5087917;28;20103;-76
2021/10/31 11:33:26;;;;;;;2.67;0.60;;;16.00;99.90;;;;;;5094174;28;20040;-79
2021/10/31 11:35:55;;;;;;;0.98;0.40;;;15.90;99.90;;;;;;5085934;28;20527;-76
2021/10/31 11:38:24;;;;;;;6.20;0.60;;;15.90;99.90;;;;;;5092218;28;20492;-74
2021/10/31 11:40:59;;;;;;;1.35;0.70;;;15.90;99.90;;;;;;5095257;28;20047;-77
2021/10/31 11:43:34;;;;;;;1.88;0.70;;;15.90;99.90;;;;;;5098090;28;20032;-78
2021/10/31 11:46:03;;;;;;;8.73;0.67;;;15.80;99.90;;;;;;5096779;28;20031;-74
2021/10/31 11:48:34;;;;;;;3.22;0.50;;;15.80;99.90;;;;;;5097884;28;20024;-77
2021/10/31 11:51:04;;;;;;;0.32;0.30;;;15.80;99.90;;;;;;5090850;28;20031;-77
2021/10/31 11:53:58;;;;;;;5.50;1.50;;;15.70;99.90;;;;;;5089396;28;20125;-77
2021/10/31 11:56:27;;;;;;;3.58;0.57;;;15.70;99.90;;;;;;5069739;28;20487;-76
2021/10/31 11:59:01;;;;;;;2.00;0.65;;;15.60;99.90;;;;;;5076375;28;20470;-72
2021/10/31 12:01:48;;;;;;;0.93;0.45;;;15.60;99.90;;;;;;5085386;28;20585;-76
2021/10/31 12:04:47;;;;;;;2.67;0.70;;;15.50;99.90;;;;;;5094992;28;20031;-76
2021/10/31 12:07:37;;;;;;;2.42;0.52;;;15.40;99.90;;;;;;5090382;28;20051;-76
2021/10/31 12:10:31;;;;;;;0.90;0.40;;;15.40;99.90;;;;;;5095153;28;20035;-72
2021/10/31 12:13:21;;;;;;;4.20;0.45;;;15.30;99.90;;;;;;5082424;28;20038;-76
2021/10/31 12:16:13;;;;;;;1.63;0.90;;;15.20;99.90;;;;;;5090474;28;20031;-74
2021/10/31 12:18:50;;;;;;;2.58;0.77;;;15.30;99.90;;;;;;5092337;28;20035;-75
2021/10/31 12:21:20;;;;;;;5.03;0.75;;;15.20;99.90;;;;;;5087123;28;20039;-76
2021/10/31 12:24:17;;;;;;;1.10;0.52;;;15.20;99.90;;;;;;5094832;28;20107;-76
2021/10/31 12:26:54;;;;;;;1.30;0.43;;;15.10;99.90;;;;;;5085540;28;20040;-77
2021/10/31 12:29:24;;;;;;;4.35;0.88;;;15.10;99.90;;;;;;5093980;28;20109;-74
2021/10/31 12:32:05;;;;;;;1.50;0.45;;;15.00;99.90;;;;;;5072201;28;20154;-75
2021/10/31 12:34:40;;;;;;;2.58;0.38;;;15.00;99.90;;;;;;5083680;28;20029;-74
2021/10/31 12:37:24;;;;;;;3.63;0.60;;;15.00;99.90;;;;;;5078956;28;20081;-75
2021/10/31 12:40:14;;;;;;;1.52;0.60;;;15.00;99.90;;;;;;5094943;28;20031;-74
2021/10/31 12:42:59;;;;;;;2.25;0.40;;;15.00;99.90;;;;;;5086329;28;20063;-73
2021/10/31 12:45:30;;;;;;;1.80;0.35;;;14.90;99.90;;;;;;5083962;28;20031;-76
2021/10/31 12:48:10;;;;;;;3.78;0.60;;;14.90;99.90;;;;;;5077857;28;20024;-77
2021/10/31 12:50:46;;;;;;;3.17;0.68;;;14.90;99.90;;;;;;5074621;28;20119;-76
2021/10/31 12:53:14;;;;;;;3.40;0.80;;;14.80;99.90;;;;;;5077246;28;20028;-74
2021/10/31 12:55:44;;;;;;;2.35;0.68;;;14.70;99.90;;;;;;5074573;28;20115;-75
2021/10/31 12:58:20;;;;;;;5.15;0.90;;;14.70;99.90;;;;;;5081546;28;20544;-77
2021/10/31 13:00:51;;;;;;;;;;;14.60;99.90;;;;;;5091445;28;20042;-76
2021/10/31 13:03:20;;;;;;;1.83;0.52;;;14.60;99.90;;;;;;5086333;28;19915;-75
2021/10/31 13:05:47;;;;;;;3.13;0.60;;;14.50;99.90;;;;;;5085497;28;20081;-75
2021/10/31 13:08:17;;;;;;;6.55;0.70;;;14.50;99.90;;;;;;5088142;28;20020;-75
2021/10/31 13:10:51;;;;;;;1.00;0.40;;;14.40;99.90;;;;;;5087174;28;20020;-75